Terminal Aerodrome Forecast
Issued by NWS

Home | Current Version | Previous Version | Text Only | Print | Product List | Glossary On
Versions: 1 2 3 4 5 6 7 8 9 10 11 12 13 14 15 16
000
FTUS44 KLZK 220819 AAA
TAFADF
TAF AMD
KADF 220819Z 2208/2306 00000KT 4SM BR BKN005 OVC010
      TEMPO 2209/2213 1SM BR
     FM221400 VRB02KT P6SM SCT005 BKN012
     FM221800 20004KT P6SM FEW250
     FM230000 14002KT P6SM FEW250
      AMD NOT SKED=

USA.gov is the U.S. government's official web portal to all federal, state and local government web resources and services.